createdAt,value
2023-05-20T00:00:11.449Z,8.60
2023-05-20T00:01:11.433Z,7.90
2023-05-20T00:02:11.422Z,9.70
2023-05-20T00:03:11.515Z,8.60
2023-05-20T00:04:11.537Z,7.80
2023-05-20T00:05:11.401Z,8.30
2023-05-20T00:06:11.377Z,8.60
2023-05-20T00:07:11.376Z,7.70
2023-05-20T00:08:11.406Z,8.60
2023-05-20T00:09:11.360Z,9.40
2023-05-20T00:10:11.361Z,8.40
2023-05-20T00:11:11.327Z,8.20
2023-05-20T00:12:11.318Z,8.70
2023-05-20T00:13:11.309Z,7.70
2023-05-20T00:14:11.313Z,7.10
2023-05-20T00:15:11.272Z,9.40
2023-05-20T00:16:12.346Z,7.10
2023-05-20T00:17:11.261Z,12.10
2023-05-20T00:18:11.293Z,10.80
2023-05-20T00:19:11.296Z,8.70
2023-05-20T00:20:11.230Z,10.80
2023-05-20T00:21:11.224Z,8.90
2023-05-20T00:22:11.202Z,7.00
2023-05-20T00:23:11.212Z,10.60
2023-05-20T00:24:11.207Z,9.00
2023-05-20T00:25:11.178Z,8.50
2023-05-20T00:26:11.164Z,7.80
2023-05-20T00:27:11.158Z,9.80
2023-05-20T00:28:11.160Z,10.90
2023-05-20T00:29:11.134Z,11.40
2023-05-20T00:30:11.132Z,12.80
2023-05-20T00:31:11.114Z,11.70
2023-05-20T00:32:11.148Z,10.50
2023-05-20T00:33:11.155Z,7.40
2023-05-20T00:34:11.108Z,10.80
2023-05-20T00:35:11.074Z,10.90
2023-05-20T00:36:11.066Z,8.00
2023-05-20T00:37:11.063Z,9.50
2023-05-20T00:38:11.055Z,12.70
2023-05-20T00:39:11.026Z,11.00
2023-05-20T00:40:12.091Z,14.40
2023-05-20T00:41:11.005Z,8.90
2023-05-20T00:42:11.009Z,9.00
2023-05-20T00:43:10.982Z,10.60
2023-05-20T00:44:10.974Z,11.00
2023-05-20T00:45:10.985Z,8.00
2023-05-20T00:46:11.013Z,13.50
2023-05-20T00:47:10.965Z,8.30
2023-05-20T00:48:10.952Z,8.90
2023-05-20T00:49:10.929Z,12.10
2023-05-20T00:50:10.921Z,9.00
2023-05-20T00:51:10.932Z,10.10
2023-05-20T00:52:10.906Z,10.90
2023-05-20T00:53:10.919Z,12.50
2023-05-20T00:54:10.878Z,8.90
2023-05-20T00:55:10.861Z,8.00
2023-05-20T00:56:10.860Z,12.10
2023-05-20T00:57:10.835Z,12.70
2023-05-20T00:58:10.845Z,7.50
2023-05-20T00:59:10.824Z,11.30
2023-05-20T01:00:10.820Z,11.40
2023-05-20T01:01:10.840Z,10.30
2023-05-20T01:02:10.820Z,8.90
2023-05-20T01:03:10.849Z,8.70
2023-05-20T01:04:10.769Z,8.70
2023-05-20T01:05:10.770Z,8.10
2023-05-20T01:06:10.753Z,8.80
2023-05-20T01:07:10.730Z,9.80
2023-05-20T01:08:10.764Z,10.00
2023-05-20T01:09:10.718Z,11.90
2023-05-20T01:10:10.716Z,8.30
2023-05-20T01:11:10.691Z,9.70
2023-05-20T01:12:10.691Z,13.20
2023-05-20T01:13:10.667Z,10.60
2023-05-20T01:14:10.671Z,9.30
2023-05-20T01:15:10.694Z,10.10
2023-05-20T01:16:10.662Z,9.90
2023-05-20T01:17:10.623Z,8.10
2023-05-20T01:18:10.744Z,11.60
2023-05-20T01:19:10.694Z,11.40
2023-05-20T01:20:10.601Z,10.00
2023-05-20T01:21:10.585Z,9.70
2023-05-20T01:22:10.572Z,9.90
2023-05-20T01:23:10.564Z,9.10
2023-05-20T01:24:10.570Z,13.70
2023-05-20T01:25:10.553Z,9.20
2023-05-20T01:26:10.534Z,11.30
2023-05-20T01:27:10.521Z,10.00
2023-05-20T01:28:10.513Z,10.10
2023-05-20T01:29:10.527Z,9.50
2023-05-20T01:30:10.490Z,11.40
2023-05-20T01:31:10.543Z,9.80
2023-05-20T01:32:10.478Z,9.90
2023-05-20T01:33:10.505Z,10.20
2023-05-20T01:34:10.479Z,11.50
2023-05-20T01:35:10.488Z,10.90
2023-05-20T01:36:10.435Z,12.10
2023-05-20T01:37:10.428Z,11.00
2023-05-20T01:38:10.429Z,10.10
2023-05-20T01:39:10.426Z,10.60
2023-05-20T01:40:10.412Z,10.90
2023-05-20T01:41:10.386Z,10.80
2023-05-20T01:42:10.370Z,12.30
2023-05-20T01:43:10.374Z,9.70
2023-05-20T01:44:10.369Z,10.00
2023-05-20T01:45:10.351Z,8.60
2023-05-20T01:46:10.391Z,11.00
2023-05-20T01:47:10.339Z,9.80
2023-05-20T01:48:10.373Z,9.70
2023-05-20T01:49:10.305Z,9.90
2023-05-20T01:50:10.299Z,9.10
2023-05-20T01:51:10.285Z,10.30
2023-05-20T01:52:10.300Z,12.80
2023-05-20T01:53:10.268Z,11.50
2023-05-20T01:54:10.256Z,12.80
2023-05-20T01:55:10.253Z,8.90
2023-05-20T01:56:10.226Z,12.60
2023-05-20T01:57:10.263Z,13.40
2023-05-20T01:58:10.203Z,9.40
2023-05-20T01:59:10.199Z,11.50
2023-05-20T02:00:10.194Z,11.20
2023-05-20T02:01:10.222Z,11.30
2023-05-20T02:02:10.213Z,9.00
2023-05-20T02:03:11.248Z,11.80
2023-05-20T02:04:10.157Z,12.80
2023-05-20T02:05:10.143Z,9.20
2023-05-20T02:06:10.173Z,12.00
2023-05-20T02:07:10.112Z,12.70
2023-05-20T02:08:10.118Z,14.90
2023-05-20T02:09:10.100Z,11.60
2023-05-20T02:10:10.096Z,12.30
2023-05-20T02:11:10.082Z,15.20
2023-05-20T02:12:10.106Z,11.90
2023-05-20T02:13:10.054Z,11.20
2023-05-20T02:14:10.048Z,11.90
2023-05-20T02:15:10.045Z,11.90
2023-05-20T02:16:10.061Z,10.40
2023-05-20T02:17:10.003Z,10.40
2023-05-20T02:18:10.075Z,12.80
2023-05-20T02:19:10.080Z,15.00
2023-05-20T02:20:10.984Z,12.00
2023-05-20T02:21:09.966Z,11.00
2023-05-20T02:22:09.963Z,16.90
2023-05-20T02:23:09.949Z,12.00
2023-05-20T02:24:09.960Z,9.80
2023-05-20T02:25:09.937Z,13.30
2023-05-20T02:26:09.931Z,14.00
2023-05-20T02:27:09.926Z,11.00
2023-05-20T02:28:09.895Z,14.20
2023-05-20T02:29:09.896Z,9.90
2023-05-20T02:30:09.891Z,12.20
2023-05-20T02:31:09.863Z,13.00
2023-05-20T02:32:09.853Z,10.80
2023-05-20T02:33:09.987Z,10.50
2023-05-20T02:34:09.865Z,13.80
2023-05-20T02:35:09.824Z,13.40
2023-05-20T02:36:09.812Z,10.50
2023-05-20T02:37:09.806Z,10.10
2023-05-20T02:38:09.803Z,11.90
2023-05-20T02:39:09.788Z,8.10
2023-05-20T02:40:09.778Z,11.60
2023-05-20T02:41:09.759Z,12.30
2023-05-20T02:42:09.752Z,10.60
2023-05-20T02:43:09.753Z,12.20
2023-05-20T02:44:09.731Z,9.20
2023-05-20T02:45:09.732Z,10.50
2023-05-20T02:46:09.767Z,10.50
2023-05-20T02:47:09.697Z,11.20
2023-05-20T02:48:09.772Z,12.70
2023-05-20T02:49:09.705Z,11.20
2023-05-20T02:50:09.676Z,17.70
2023-05-20T02:51:09.659Z,10.90
2023-05-20T02:52:09.656Z,9.70
2023-05-20T02:53:09.643Z,10.80
2023-05-20T02:54:09.626Z,11.90
2023-05-20T02:55:09.631Z,11.60
2023-05-20T02:56:09.614Z,10.80
2023-05-20T02:57:09.604Z,9.70
2023-05-20T02:58:09.587Z,11.20
2023-05-20T02:59:09.575Z,11.80
2023-05-20T03:00:09.569Z,11.00
2023-05-20T03:01:09.577Z,11.30
2023-05-20T03:02:09.559Z,14.30
2023-05-20T03:03:09.545Z,10.30
2023-05-20T03:04:09.620Z,16.50
2023-05-20T03:05:09.504Z,12.20
2023-05-20T03:06:09.506Z,13.80
2023-05-20T03:07:09.496Z,11.40
2023-05-20T03:08:09.495Z,13.50
2023-05-20T03:09:09.466Z,11.80
2023-05-20T03:10:09.482Z,13.20
2023-05-20T03:11:09.471Z,13.90
2023-05-20T03:12:09.439Z,11.40
2023-05-20T03:13:09.435Z,13.40
2023-05-20T03:14:09.414Z,14.70
2023-05-20T03:15:09.434Z,12.70
2023-05-20T03:16:09.515Z,14.10
2023-05-20T03:17:09.387Z,11.20
2023-05-20T03:18:09.374Z,13.60
2023-05-20T03:19:09.390Z,10.90
2023-05-20T03:20:09.394Z,12.30
2023-05-20T03:21:09.355Z,14.30
2023-05-20T03:22:09.338Z,11.70
2023-05-20T03:23:09.346Z,11.40
2023-05-20T03:24:09.312Z,15.00
2023-05-20T03:25:09.313Z,10.90
2023-05-20T03:26:09.295Z,15.30
2023-05-20T03:27:09.287Z,11.80
2023-05-20T03:28:09.278Z,17.40
2023-05-20T03:29:09.258Z,12.90
2023-05-20T03:30:09.265Z,15.70
2023-05-20T03:31:09.267Z,13.80
2023-05-20T03:32:10.821Z,10.40
2023-05-20T03:33:10.223Z,14.40
2023-05-20T03:34:09.217Z,15.10
2023-05-20T03:35:09.207Z,14.20
2023-05-20T03:36:09.188Z,13.90
2023-05-20T03:37:09.171Z,13.70
2023-05-20T03:38:09.161Z,15.40
2023-05-20T03:39:09.169Z,13.90
2023-05-20T03:40:09.144Z,12.90
2023-05-20T03:41:09.129Z,13.50
2023-05-20T03:42:09.125Z,10.30
2023-05-20T03:43:09.108Z,14.90
2023-05-20T03:44:09.121Z,12.60
2023-05-20T03:45:09.085Z,16.50
2023-05-20T03:46:09.135Z,11.40
2023-05-20T03:47:09.080Z,12.90
2023-05-20T03:48:09.083Z,14.00
2023-05-20T03:49:09.053Z,12.50
2023-05-20T03:50:09.039Z,12.00
2023-05-20T03:51:09.021Z,11.90
2023-05-20T03:52:09.013Z,14.50
2023-05-20T03:53:09.018Z,13.20
2023-05-20T03:54:08.994Z,11.90
2023-05-20T03:55:08.988Z,13.70
2023-05-20T03:56:08.977Z,15.10
2023-05-20T03:57:08.967Z,14.80
2023-05-20T03:58:08.964Z,15.40
2023-05-20T03:59:08.949Z,14.00
2023-05-20T04:00:08.934Z,15.90
2023-05-20T04:01:08.928Z,15.60
2023-05-20T04:02:08.963Z,15.50
2023-05-20T04:03:09.012Z,12.40
2023-05-20T04:04:08.974Z,12.90
2023-05-20T04:05:08.891Z,12.30
2023-05-20T04:06:08.879Z,14.20
2023-05-20T04:07:08.877Z,15.60
2023-05-20T04:08:08.847Z,19.20
2023-05-20T04:09:08.846Z,15.50
2023-05-20T04:10:08.840Z,15.50
2023-05-20T04:11:08.815Z,14.50
2023-05-20T04:12:08.815Z,12.00
2023-05-20T04:13:08.794Z,15.10
2023-05-20T04:14:08.788Z,13.60
2023-05-20T04:15:08.773Z,14.20
2023-05-20T04:16:08.792Z,14.00
2023-05-20T04:17:08.815Z,14.20
2023-05-20T04:18:08.811Z,15.80
2023-05-20T04:19:08.784Z,12.80
2023-05-20T04:20:08.741Z,14.10
2023-05-20T04:21:08.735Z,18.50
2023-05-20T04:22:08.702Z,16.90
2023-05-20T04:23:08.692Z,14.70
2023-05-20T04:24:08.680Z,14.00
2023-05-20T04:25:08.677Z,16.00
2023-05-20T04:26:08.678Z,17.20
2023-05-20T04:27:08.653Z,14.20
2023-05-20T04:28:08.666Z,14.80
2023-05-20T04:29:08.630Z,16.40
2023-05-20T04:30:08.639Z,14.70
2023-05-20T04:31:08.636Z,14.50
2023-05-20T04:32:08.709Z,15.30
2023-05-20T04:33:08.645Z,14.60
2023-05-20T04:34:08.578Z,18.40
2023-05-20T04:35:08.576Z,14.50
2023-05-20T04:36:08.561Z,14.50
2023-05-20T04:37:08.551Z,15.30
2023-05-20T04:38:08.569Z,13.00
2023-05-20T04:39:08.532Z,17.20
2023-05-20T04:40:08.534Z,15.00
2023-05-20T04:41:08.508Z,14.60
2023-05-20T04:42:08.499Z,18.00
2023-05-20T04:43:08.499Z,17.40
2023-05-20T04:44:08.488Z,15.80
2023-05-20T04:45:08.475Z,17.50
2023-05-20T04:46:08.462Z,14.50
2023-05-20T04:47:08.452Z,17.10
2023-05-20T04:48:08.531Z,16.40
2023-05-20T04:49:08.440Z,14.50
2023-05-20T04:50:08.419Z,16.10
2023-05-20T04:51:08.403Z,17.10
2023-05-20T04:52:08.396Z,17.70
2023-05-20T04:53:08.382Z,16.30
2023-05-20T04:54:08.394Z,17.20
2023-05-20T04:55:08.368Z,13.90
2023-05-20T04:56:08.375Z,16.00
2023-05-20T04:57:08.358Z,16.00
2023-05-20T04:58:08.342Z,17.60
2023-05-20T04:59:08.341Z,18.40
2023-05-20T05:00:08.331Z,16.70
2023-05-20T05:01:08.320Z,18.00
2023-05-20T05:02:08.296Z,15.50
2023-05-20T05:03:08.357Z,17.40
2023-05-20T05:04:08.305Z,17.20
2023-05-20T05:05:08.335Z,16.90
2023-05-20T05:06:08.261Z,20.80
2023-05-20T05:07:08.246Z,18.30
2023-05-20T05:08:08.247Z,20.10
2023-05-20T05:09:08.255Z,18.70
2023-05-20T05:10:08.223Z,18.00
2023-05-20T05:11:08.212Z,18.30
2023-05-20T05:12:08.212Z,21.90
2023-05-20T05:13:08.198Z,19.60
2023-05-20T05:14:08.184Z,17.30
2023-05-20T05:15:08.160Z,18.60
2023-05-20T05:16:08.220Z,18.90
2023-05-20T05:17:08.148Z,18.80
2023-05-20T05:18:09.177Z,18.60
2023-05-20T05:19:08.154Z,16.70
2023-05-20T05:20:08.109Z,18.50
2023-05-20T05:21:08.108Z,21.30
2023-05-20T05:22:08.101Z,20.40
2023-05-20T05:23:08.082Z,19.20
2023-05-20T05:24:08.071Z,19.70
2023-05-20T05:25:08.059Z,18.00
2023-05-20T05:26:08.063Z,23.70
2023-05-20T05:27:08.053Z,21.40
2023-05-20T05:28:08.039Z,21.70
2023-05-20T05:29:09.729Z,19.50
2023-05-20T05:30:08.031Z,19.50
2023-05-20T05:31:08.042Z,25.70
2023-05-20T05:32:08.067Z,23.40
2023-05-20T05:33:08.163Z,21.80
2023-05-20T05:34:07.967Z,20.40
2023-05-20T05:35:08.496Z,22.20
2023-05-20T05:36:08.954Z,20.10
2023-05-20T05:37:07.932Z,19.90
2023-05-20T05:38:07.924Z,23.60
2023-05-20T05:39:07.914Z,20.60
2023-05-20T05:40:07.917Z,21.20
2023-05-20T05:41:07.895Z,20.30
2023-05-20T05:42:07.882Z,21.90
2023-05-20T05:43:07.877Z,21.90
2023-05-20T05:44:07.858Z,23.10
2023-05-20T05:45:07.857Z,23.60
2023-05-20T05:46:07.840Z,20.60
2023-05-20T05:47:07.937Z,24.70
2023-05-20T05:48:07.878Z,26.10
2023-05-20T05:49:07.825Z,19.50
2023-05-20T05:50:07.814Z,21.20
2023-05-20T05:51:07.804Z,23.00
2023-05-20T05:52:07.780Z,20.60
2023-05-20T05:53:07.784Z,23.20
2023-05-20T05:54:07.767Z,21.40
2023-05-20T05:55:07.745Z,21.40
2023-05-20T05:56:07.745Z,24.00
2023-05-20T05:57:07.732Z,20.30
2023-05-20T05:58:07.724Z,20.80
2023-05-20T05:59:07.713Z,22.90
2023-05-20T06:00:07.689Z,19.60
2023-05-20T06:01:07.736Z,20.30
2023-05-20T06:02:07.704Z,20.70
2023-05-20T06:03:07.798Z,20.90
2023-05-20T06:04:07.783Z,19.10
2023-05-20T06:05:08.643Z,24.00
2023-05-20T06:06:07.664Z,18.50
2023-05-20T06:07:07.630Z,18.70
2023-05-20T06:08:07.625Z,22.70
2023-05-20T06:09:07.616Z,19.00
2023-05-20T06:10:07.606Z,19.40
2023-05-20T06:11:07.586Z,19.70
2023-05-20T06:12:07.579Z,18.10
2023-05-20T06:13:07.573Z,17.60
2023-05-20T06:14:07.546Z,22.30
2023-05-20T06:15:07.541Z,21.70
2023-05-20T06:16:07.527Z,23.00
2023-05-20T06:17:07.672Z,20.70
2023-05-20T06:18:07.540Z,20.80
2023-05-20T06:19:07.507Z,21.00
2023-05-20T06:20:07.488Z,21.10
2023-05-20T06:21:07.472Z,19.40
2023-05-20T06:22:07.472Z,23.00
2023-05-20T06:23:07.451Z,21.30
2023-05-20T06:24:07.442Z,20.90
2023-05-20T06:25:07.439Z,19.30
2023-05-20T06:26:07.428Z,21.10
2023-05-20T06:27:07.426Z,21.80
2023-05-20T06:28:07.402Z,21.40
2023-05-20T06:29:07.391Z,17.90
2023-05-20T06:30:07.383Z,23.80
2023-05-20T06:31:07.427Z,18.80
2023-05-20T06:32:07.375Z,23.80
2023-05-20T06:33:07.370Z,20.80
2023-05-20T06:34:07.387Z,18.60
2023-05-20T06:35:07.339Z,19.80
2023-05-20T06:36:07.336Z,22.30
2023-05-20T06:37:07.316Z,21.30
2023-05-20T06:38:07.329Z,21.50
2023-05-20T06:39:07.284Z,22.40
2023-05-20T06:40:07.274Z,19.90
2023-05-20T06:41:07.277Z,20.20
2023-05-20T06:42:07.257Z,19.00
2023-05-20T06:43:07.254Z,17.40
2023-05-20T06:44:07.239Z,22.40
2023-05-20T06:45:07.236Z,20.60
2023-05-20T06:46:07.321Z,19.30
2023-05-20T06:47:07.203Z,18.20
2023-05-20T06:48:07.247Z,24.00
2023-05-20T06:49:07.192Z,19.30
2023-05-20T06:50:07.178Z,19.50
2023-05-20T06:51:07.164Z,21.10
2023-05-20T06:52:07.145Z,19.30
2023-05-20T06:53:07.138Z,18.70
2023-05-20T06:54:07.126Z,22.40
2023-05-20T06:55:07.153Z,21.10
2023-05-20T06:56:07.122Z,20.60
2023-05-20T06:57:07.093Z,24.60
2023-05-20T06:58:07.093Z,22.00
2023-05-20T06:59:07.083Z,18.30
2023-05-20T07:00:07.077Z,18.50
2023-05-20T07:01:07.053Z,20.60
2023-05-20T07:02:07.060Z,21.90
2023-05-20T07:03:07.081Z,19.80
2023-05-20T07:04:07.046Z,22.00
2023-05-20T07:05:07.017Z,21.30
2023-05-20T07:06:07.016Z,18.40
2023-05-20T07:07:07.009Z,19.70
2023-05-20T07:08:06.978Z,20.30
2023-05-20T07:09:06.975Z,22.20
2023-05-20T07:10:06.960Z,20.20
2023-05-20T07:11:06.945Z,22.10
2023-05-20T07:12:06.933Z,22.20
2023-05-20T07:13:06.932Z,23.60
2023-05-20T07:14:06.927Z,22.30
2023-05-20T07:15:06.912Z,21.60
2023-05-20T07:16:06.914Z,20.20
2023-05-20T07:17:06.882Z,24.70
2023-05-20T07:18:06.959Z,20.10
2023-05-20T07:19:06.872Z,21.40
2023-05-20T07:20:06.837Z,20.70
2023-05-20T07:21:07.854Z,20.20
2023-05-20T07:22:06.840Z,24.00
2023-05-20T07:23:06.828Z,17.60
2023-05-20T07:24:06.810Z,20.70
2023-05-20T07:25:06.811Z,21.50
2023-05-20T07:26:06.785Z,20.50
2023-05-20T07:27:06.784Z,18.50
2023-05-20T07:28:06.798Z,24.70
2023-05-20T07:29:06.744Z,21.00
2023-05-20T07:30:06.749Z,18.10
2023-05-20T07:31:06.733Z,19.20
2023-05-20T07:32:06.787Z,23.50
2023-05-20T07:33:06.765Z,22.00
2023-05-20T07:34:06.686Z,21.90
2023-05-20T07:35:06.689Z,19.30
2023-05-20T07:36:08.503Z,19.50
2023-05-20T07:37:06.672Z,19.70
2023-05-20T07:38:06.734Z,19.60
2023-05-20T07:39:10.368Z,19.90
2023-05-20T07:40:08.630Z,20.00
2023-05-20T07:41:06.627Z,17.20
2023-05-20T07:42:06.646Z,19.20
2023-05-20T07:43:06.600Z,18.80
2023-05-20T07:44:06.603Z,17.50
2023-05-20T07:45:06.578Z,19.50
2023-05-20T07:46:06.664Z,17.90
2023-05-20T07:47:06.570Z,20.10
2023-05-20T07:48:06.570Z,20.00
2023-05-20T07:49:06.556Z,17.10
2023-05-20T07:50:06.527Z,20.60
2023-05-20T07:51:06.536Z,18.60
2023-05-20T07:52:06.504Z,20.50
2023-05-20T07:53:06.504Z,19.00
2023-05-20T07:54:06.485Z,21.50
2023-05-20T07:55:06.492Z,19.40
2023-05-20T07:56:06.482Z,17.10
2023-05-20T07:57:06.452Z,20.80
2023-05-20T07:58:06.481Z,23.20
2023-05-20T07:59:06.433Z,17.70
2023-05-20T08:00:06.427Z,20.90
2023-05-20T08:01:06.430Z,18.20
2023-05-20T08:02:06.416Z,20.80
2023-05-20T08:03:06.539Z,21.80
2023-05-20T08:04:06.465Z,21.20
2023-05-20T08:05:06.382Z,18.80
2023-05-20T08:06:06.380Z,19.50
2023-05-20T08:07:06.363Z,18.30
2023-05-20T08:08:06.371Z,21.30
2023-05-20T08:09:06.349Z,18.50
2023-05-20T08:10:06.328Z,19.50
2023-05-20T08:11:06.320Z,18.80
2023-05-20T08:12:06.312Z,17.00
2023-05-20T08:13:06.284Z,20.60
2023-05-20T08:14:06.455Z,20.60
2023-05-20T08:15:06.268Z,19.80
2023-05-20T08:16:06.273Z,17.40
2023-05-20T08:17:06.329Z,19.70
2023-05-20T08:18:06.281Z,17.30
2023-05-20T08:19:06.278Z,20.60
2023-05-20T08:20:06.213Z,17.80
2023-05-20T08:21:06.214Z,20.80
2023-05-20T08:22:06.200Z,20.80
2023-05-20T08:23:06.212Z,19.50
2023-05-20T08:24:06.175Z,21.20
2023-05-20T08:25:06.167Z,20.20
2023-05-20T08:26:06.156Z,19.40
2023-05-20T08:27:06.143Z,20.50
2023-05-20T08:28:06.140Z,18.50
2023-05-20T08:29:06.129Z,23.80
2023-05-20T08:30:06.112Z,20.10
2023-05-20T08:31:06.137Z,19.30
2023-05-20T08:32:07.112Z,19.30
2023-05-20T08:33:06.162Z,17.80
2023-05-20T08:34:06.073Z,18.60
2023-05-20T08:35:06.062Z,20.20
2023-05-20T08:36:06.058Z,20.50
2023-05-20T08:37:06.045Z,24.40
2023-05-20T08:38:06.025Z,19.50
2023-05-20T08:39:06.012Z,19.50
2023-05-20T08:40:06.005Z,18.70
2023-05-20T08:41:06.014Z,19.10
2023-05-20T08:42:06.009Z,20.00
2023-05-20T08:43:05.980Z,24.00
2023-05-20T08:44:05.987Z,21.10
2023-05-20T08:45:05.958Z,21.00
2023-05-20T08:46:05.977Z,20.90
2023-05-20T08:47:05.937Z,20.30
2023-05-20T08:48:06.048Z,22.60
2023-05-20T08:49:05.919Z,20.40
2023-05-20T08:50:05.904Z,20.80
2023-05-20T08:51:05.905Z,20.80
2023-05-20T08:52:05.884Z,20.00
2023-05-20T08:53:05.876Z,20.60
2023-05-20T08:54:05.873Z,19.10
2023-05-20T08:55:05.864Z,20.10
2023-05-20T08:56:05.862Z,22.10
2023-05-20T08:57:05.839Z,23.10
2023-05-20T08:58:05.826Z,20.60
2023-05-20T08:59:05.815Z,21.80
2023-05-20T09:00:05.809Z,21.50
2023-05-20T09:01:05.795Z,20.40
2023-05-20T09:02:05.833Z,21.40
2023-05-20T09:03:05.802Z,21.20
2023-05-20T09:04:05.764Z,20.90
2023-05-20T09:05:05.883Z,21.80
2023-05-20T09:06:05.754Z,20.20
2023-05-20T09:07:05.728Z,20.50
2023-05-20T09:08:05.722Z,21.90
2023-05-20T09:09:05.708Z,21.90
2023-05-20T09:10:05.702Z,21.20
2023-05-20T09:11:05.688Z,18.40
2023-05-20T09:12:05.709Z,21.10
2023-05-20T09:13:05.664Z,25.60
2023-05-20T09:14:05.673Z,22.30
2023-05-20T09:15:05.634Z,21.80
2023-05-20T09:16:05.636Z,23.30
2023-05-20T09:17:05.631Z,22.50
2023-05-20T09:18:05.660Z,23.40
2023-05-20T09:19:05.659Z,19.30
2023-05-20T09:20:05.590Z,18.80
2023-05-20T09:21:05.580Z,21.00
2023-05-20T09:22:05.567Z,24.90
2023-05-20T09:23:05.574Z,21.00
2023-05-20T09:24:05.554Z,22.00
2023-05-20T09:25:05.532Z,21.00
2023-05-20T09:26:05.523Z,21.10
2023-05-20T09:27:05.518Z,19.50
2023-05-20T09:28:05.512Z,19.60
2023-05-20T09:29:05.497Z,23.80
2023-05-20T09:30:05.486Z,20.60
2023-05-20T09:31:05.467Z,19.40
2023-05-20T09:32:05.616Z,21.10
2023-05-20T09:33:05.623Z,21.30
2023-05-20T09:34:05.438Z,19.00
2023-05-20T09:35:05.428Z,20.50
2023-05-20T09:36:05.413Z,19.20
2023-05-20T09:37:05.418Z,18.70
2023-05-20T09:38:05.408Z,19.60
2023-05-20T09:39:05.505Z,19.00
2023-05-20T09:40:05.382Z,21.70
2023-05-20T09:41:05.364Z,18.40
2023-05-20T09:42:05.365Z,17.30
2023-05-20T09:43:05.364Z,17.40
2023-05-20T09:44:05.333Z,18.80
2023-05-20T09:45:05.367Z,19.40
2023-05-20T09:46:05.369Z,19.70
2023-05-20T09:47:07.698Z,16.80
2023-05-20T09:48:05.355Z,18.40
2023-05-20T09:49:05.278Z,17.20
2023-05-20T09:50:05.264Z,18.50
2023-05-20T09:51:05.272Z,20.10
2023-05-20T09:52:05.264Z,18.90
2023-05-20T09:53:05.232Z,16.20
2023-05-20T09:54:05.233Z,20.10
2023-05-20T09:55:05.220Z,19.40
2023-05-20T09:56:05.255Z,18.90
2023-05-20T09:57:05.197Z,15.40
2023-05-20T09:58:05.191Z,18.50
2023-05-20T09:59:05.175Z,20.50
2023-05-20T10:00:05.219Z,17.60
2023-05-20T10:01:05.323Z,15.30
2023-05-20T10:02:05.143Z,15.40
2023-05-20T10:03:05.248Z,16.30
2023-05-20T10:04:05.202Z,21.30
2023-05-20T10:05:05.124Z,16.80
2023-05-20T10:06:05.120Z,21.70
2023-05-20T10:07:05.098Z,14.90
2023-05-20T10:08:05.107Z,14.80
2023-05-20T10:09:05.074Z,16.80
2023-05-20T10:10:05.078Z,15.30
2023-05-20T10:11:05.059Z,14.40
2023-05-20T10:12:05.047Z,14.20
2023-05-20T10:13:05.029Z,16.30
2023-05-20T10:14:05.028Z,16.50
2023-05-20T10:15:05.031Z,16.10
2023-05-20T10:16:05.113Z,15.90
2023-05-20T10:17:05.997Z,16.40
2023-05-20T10:18:05.084Z,16.50
2023-05-20T10:19:05.009Z,13.80
2023-05-20T10:20:06.817Z,16.10
2023-05-20T10:21:05.945Z,16.60
2023-05-20T10:22:04.995Z,17.70
2023-05-20T10:23:04.942Z,15.80
2023-05-20T10:24:04.930Z,16.40
2023-05-20T10:25:04.911Z,14.00
2023-05-20T10:26:04.891Z,13.40
2023-05-20T10:27:04.896Z,16.30
2023-05-20T10:28:04.881Z,14.40
2023-05-20T10:29:04.875Z,15.40
2023-05-20T10:30:04.857Z,15.30
2023-05-20T10:31:04.843Z,16.10
2023-05-20T10:32:04.858Z,16.00
2023-05-20T10:33:04.967Z,16.70
2023-05-20T10:34:04.821Z,15.10
2023-05-20T10:35:04.892Z,16.70
2023-05-20T10:36:04.811Z,15.20
2023-05-20T10:37:04.779Z,15.90
2023-05-20T10:38:04.780Z,18.90
2023-05-20T10:39:04.760Z,17.90
2023-05-20T10:40:04.760Z,16.80
2023-05-20T10:41:04.748Z,16.60
2023-05-20T10:42:04.723Z,21.90
2023-05-20T10:43:04.721Z,18.00
2023-05-20T10:44:04.703Z,17.30
2023-05-20T10:45:04.691Z,16.50
2023-05-20T10:46:07.522Z,16.00
2023-05-20T10:47:24.686Z,16.40
2023-05-20T10:48:06.747Z,16.30
2023-05-20T10:49:04.791Z,17.20
2023-05-20T10:50:04.650Z,20.20
2023-05-20T10:51:04.636Z,16.20
2023-05-20T10:52:04.619Z,16.80
2023-05-20T10:53:05.613Z,15.90
2023-05-20T10:54:04.608Z,17.80
2023-05-20T10:55:04.601Z,17.40
2023-05-20T10:56:04.581Z,20.00
2023-05-20T10:57:04.581Z,17.00
2023-05-20T10:58:04.561Z,17.10
2023-05-20T10:59:04.557Z,16.70
2023-05-20T11:00:04.553Z,14.10
2023-05-20T11:01:04.683Z,17.70
2023-05-20T11:02:04.534Z,17.00
2023-05-20T11:03:04.580Z,15.30
2023-05-20T11:04:04.650Z,16.20
2023-05-20T11:05:04.492Z,16.80
2023-05-20T11:06:04.494Z,22.10
2023-05-20T11:07:04.473Z,19.10
2023-05-20T11:08:08.351Z,18.80
2023-05-20T11:09:06.451Z,18.70
2023-05-20T11:10:04.433Z,15.30
2023-05-20T11:11:04.440Z,17.50
2023-05-20T11:12:04.422Z,16.70
2023-05-20T11:13:04.434Z,16.50
2023-05-20T11:14:04.398Z,18.40
2023-05-20T11:15:04.391Z,19.70
2023-05-20T11:16:04.389Z,19.60
2023-05-20T11:17:04.449Z,19.40
2023-05-20T11:18:04.428Z,18.00
2023-05-20T11:19:04.384Z,20.70
2023-05-20T11:20:04.358Z,20.20
2023-05-20T11:21:04.332Z,17.60
2023-05-20T11:22:04.316Z,16.50
2023-05-20T11:23:04.297Z,18.80
2023-05-20T11:24:04.289Z,20.80
2023-05-20T11:25:04.302Z,18.20
2023-05-20T11:26:04.267Z,19.00
2023-05-20T11:27:04.262Z,16.10
2023-05-20T11:28:04.253Z,17.90
2023-05-20T11:29:04.256Z,17.20
2023-05-20T11:30:04.246Z,17.00
2023-05-20T11:31:04.218Z,17.50
2023-05-20T11:32:04.361Z,15.80
2023-05-20T11:33:04.270Z,19.60
2023-05-20T11:34:04.422Z,19.80
2023-05-20T11:35:04.176Z,18.00
2023-05-20T11:36:08.656Z,17.70
2023-05-20T11:37:05.157Z,18.40
2023-05-20T11:38:04.145Z,19.40
2023-05-20T11:39:04.150Z,16.20
2023-05-20T11:40:04.127Z,17.30
2023-05-20T11:41:04.114Z,16.30
2023-05-20T11:42:04.100Z,15.80
2023-05-20T11:43:04.108Z,14.00
2023-05-20T11:44:04.293Z,15.70
2023-05-20T11:45:04.073Z,16.50
2023-05-20T11:46:04.103Z,15.60
2023-05-20T11:47:04.045Z,18.40
2023-05-20T11:48:04.117Z,16.80
2023-05-20T11:49:04.025Z,20.40
2023-05-20T11:50:04.018Z,16.20
2023-05-20T11:51:04.003Z,15.90
2023-05-20T11:52:03.995Z,17.80
2023-05-20T11:53:04.000Z,15.90
2023-05-20T11:54:03.981Z,19.60
2023-05-20T11:55:03.965Z,19.20
2023-05-20T11:56:03.955Z,13.50
2023-05-20T11:57:05.635Z,16.50
2023-05-20T11:58:03.960Z,16.20
2023-05-20T11:59:03.934Z,19.80
2023-05-20T12:00:03.916Z,14.90
2023-05-20T12:01:14.062Z,16.80
2023-05-20T12:02:05.906Z,14.00
2023-05-20T12:03:04.009Z,14.70
2023-05-20T12:04:04.032Z,15.60
2023-05-20T12:05:03.917Z,15.80
2023-05-20T12:06:03.853Z,14.70
2023-05-20T12:07:03.863Z,14.50
2023-05-20T12:08:03.839Z,16.40
2023-05-20T12:09:03.827Z,14.60
2023-05-20T12:10:03.819Z,16.60
2023-05-20T12:11:03.817Z,15.30
2023-05-20T12:12:03.803Z,13.80
2023-05-20T12:13:03.795Z,14.60
2023-05-20T12:14:03.788Z,14.80
2023-05-20T12:15:03.870Z,17.60
2023-05-20T12:16:03.794Z,14.50
2023-05-20T12:17:03.741Z,16.00
2023-05-20T12:18:03.803Z,18.70
2023-05-20T12:19:03.765Z,15.70
2023-05-20T12:20:03.768Z,15.00
2023-05-20T12:21:03.721Z,16.30
2023-05-20T12:22:03.697Z,13.70
2023-05-20T12:23:03.698Z,15.20
2023-05-20T12:24:03.685Z,14.90
2023-05-20T12:25:03.726Z,15.80
2023-05-20T12:26:03.667Z,16.50
2023-05-20T12:27:03.665Z,17.60
2023-05-20T12:28:03.635Z,16.80
2023-05-20T12:29:03.626Z,14.80
2023-05-20T12:30:03.647Z,14.70
2023-05-20T12:31:03.606Z,12.30
2023-05-20T12:32:03.664Z,16.70
2023-05-20T12:33:03.649Z,16.10
2023-05-20T12:34:03.665Z,15.80
2023-05-20T12:35:03.577Z,16.60
2023-05-20T12:36:03.564Z,16.50
2023-05-20T12:37:03.547Z,13.90
2023-05-20T12:38:03.541Z,15.50
2023-05-20T12:39:03.540Z,13.30
2023-05-20T12:40:03.525Z,14.90
2023-05-20T12:41:03.502Z,18.40
2023-05-20T12:42:03.497Z,13.60
2023-05-20T12:43:03.487Z,17.60
2023-05-20T12:44:03.492Z,15.30
2023-05-20T12:45:03.469Z,14.30
2023-05-20T12:46:03.461Z,16.90
2023-05-20T12:47:03.507Z,16.60
2023-05-20T12:48:03.459Z,16.60
2023-05-20T12:49:03.436Z,15.10
2023-05-20T12:50:03.415Z,18.80
2023-05-20T12:51:03.402Z,15.70
2023-05-20T12:52:08.530Z,14.80
2023-05-20T12:53:05.595Z,16.20
2023-05-20T12:54:03.384Z,14.90